sensor_id;sensor_type;location;lat;lon;timestamp;pressure;altitude;pressure_sealevel;temperature;humidity
64679;BME280;51094;53.864;27.676;2022-12-17T00:02:40;99124.50;;;-3.54;77.24
64679;BME280;51094;53.864;27.676;2022-12-17T00:05:26;99095.16;;;-3.73;76.59
64679;BME280;51094;53.864;27.676;2022-12-17T00:08:11;99104.44;;;-3.71;76.88
64679;BME280;51094;53.864;27.676;2022-12-17T00:10:57;99125.47;;;-3.61;77.13
64679;BME280;51094;53.864;27.676;2022-12-17T00:13:43;99066.72;;;-3.93;77.37
64679;BME280;51094;53.864;27.676;2022-12-17T00:16:28;99110.47;;;-3.78;76.82
64679;BME280;51094;53.864;27.676;2022-12-17T00:19:13;99028.94;;;-4.16;77.23
64679;BME280;51094;53.864;27.676;2022-12-17T00:21:59;99151.25;;;-3.31;77.03
64679;BME280;51094;53.864;27.676;2022-12-17T00:24:44;99151.19;;;-3.28;76.34
64679;BME280;51094;53.864;27.676;2022-12-17T00:27:29;99116.03;;;-3.53;76.08
64679;BME280;51094;53.864;27.676;2022-12-17T00:30:14;99149.84;;;-3.48;76.16
64679;BME280;51094;53.864;27.676;2022-12-17T00:33:00;99167.47;;;-3.40;75.98
64679;BME280;51094;53.864;27.676;2022-12-17T00:35:52;99134.91;;;-3.69;76.08
64679;BME280;51094;53.864;27.676;2022-12-17T00:38:38;99134.72;;;-3.57;76.11
64679;BME280;51094;53.864;27.676;2022-12-17T00:41:24;99175.88;;;-3.35;76.38
64679;BME280;51094;53.864;27.676;2022-12-17T00:44:10;99045.19;;;-4.26;75.85
64679;BME280;51094;53.864;27.676;2022-12-17T00:46:55;99138.28;;;-3.67;75.97
64679;BME280;51094;53.864;27.676;2022-12-17T00:49:44;99083.66;;;-3.94;75.93
64679;BME280;51094;53.864;27.676;2022-12-17T00:52:29;99172.28;;;-3.22;76.15
64679;BME280;51094;53.864;27.676;2022-12-17T00:55:15;99116.63;;;-3.40;76.00
64679;BME280;51094;53.864;27.676;2022-12-17T00:58:00;99143.28;;;-3.12;76.30
64679;BME280;51094;53.864;27.676;2022-12-17T01:00:46;99066.16;;;-3.60;75.80
64679;BME280;51094;53.864;27.676;2022-12-17T01:03:31;99101.66;;;-3.55;75.42
64679;BME280;51094;53.864;27.676;2022-12-17T01:06:17;99118.38;;;-3.42;75.58
64679;BME280;51094;53.864;27.676;2022-12-17T01:09:02;99137.59;;;-3.26;75.72
64679;BME280;51094;53.864;27.676;2022-12-17T01:11:48;99134.97;;;-3.21;76.20
64679;BME280;51094;53.864;27.676;2022-12-17T01:14:34;99115.53;;;-3.24;75.73
64679;BME280;51094;53.864;27.676;2022-12-17T01:17:20;99140.94;;;-3.22;75.51
64679;BME280;51094;53.864;27.676;2022-12-17T01:20:06;99110.97;;;-3.54;75.37
64679;BME280;51094;53.864;27.676;2022-12-17T01:22:51;99100.94;;;-3.63;76.02
64679;BME280;51094;53.864;27.676;2022-12-17T01:25:37;99038.81;;;-3.96;75.80
64679;BME280;51094;53.864;27.676;2022-12-17T01:28:23;98953.88;;;-4.32;75.47
64679;BME280;51094;53.864;27.676;2022-12-17T01:31:09;99119.84;;;-3.29;75.83
64679;BME280;51094;53.864;27.676;2022-12-17T01:34:00;99072.03;;;-3.56;75.28
64679;BME280;51094;53.864;27.676;2022-12-17T01:36:46;99100.75;;;-3.51;75.19
64679;BME280;51094;53.864;27.676;2022-12-17T01:39:32;99110.75;;;-3.44;75.28
64679;BME280;51094;53.864;27.676;2022-12-17T01:42:17;99048.75;;;-3.84;75.03
64679;BME280;51094;53.864;27.676;2022-12-17T01:45:03;99086.66;;;-3.71;75.27
64679;BME280;51094;53.864;27.676;2022-12-17T01:47:49;99142.03;;;-3.39;74.84
64679;BME280;51094;53.864;27.676;2022-12-17T01:50:40;99124.56;;;-3.57;75.64
64679;BME280;51094;53.864;27.676;2022-12-17T01:53:32;99142.03;;;-3.39;75.00
64679;BME280;51094;53.864;27.676;2022-12-17T01:56:19;99048.81;;;-3.87;75.45
64679;BME280;51094;53.864;27.676;2022-12-17T01:59:07;99096.56;;;-3.54;75.93
64679;BME280;51094;53.864;27.676;2022-12-17T02:01:53;99098.16;;;-3.48;75.51
64679;BME280;51094;53.864;27.676;2022-12-17T02:04:39;98969.66;;;-4.14;75.88
64679;BME280;51094;53.864;27.676;2022-12-17T02:07:45;99122.25;;;-3.21;75.02
64679;BME280;51094;53.864;27.676;2022-12-17T02:10:46;99117.28;;;-3.27;75.39
64679;BME280;51094;53.864;27.676;2022-12-17T02:13:41;99065.38;;;-3.65;75.47
64679;BME280;51094;53.864;27.676;2022-12-17T02:16:36;99043.34;;;-3.63;75.10
64679;BME280;51094;53.864;27.676;2022-12-17T02:26:08;99027.81;;;-3.97;75.14
64679;BME280;51094;53.864;27.676;2022-12-17T02:28:57;99095.47;;;-3.42;75.91
64679;BME280;51094;53.864;27.676;2022-12-17T02:31:44;99130.97;;;-3.36;75.41
64679;BME280;51094;53.864;27.676;2022-12-17T02:34:42;99134.41;;;-3.39;75.63
64679;BME280;51094;53.864;27.676;2022-12-17T02:37:28;99094.16;;;-3.63;75.33
64679;BME280;51094;53.864;27.676;2022-12-17T02:40:14;99144.56;;;-3.37;75.49
64679;BME280;51094;53.864;27.676;2022-12-17T02:43:00;99122.66;;;-3.46;75.35
64679;BME280;51094;53.864;27.676;2022-12-17T02:45:47;99129.28;;;-3.36;75.17
64679;BME280;51094;53.864;27.676;2022-12-17T02:48:33;99116.50;;;-3.31;75.57
64679;BME280;51094;53.864;27.676;2022-12-17T02:51:20;98888.38;;;-4.61;75.37
64679;BME280;51094;53.864;27.676;2022-12-17T02:54:07;99033.38;;;-3.75;75.62
64679;BME280;51094;53.864;27.676;2022-12-17T02:56:52;99105.63;;;-3.41;75.59
64679;BME280;51094;53.864;27.676;2022-12-17T02:59:38;99084.72;;;-3.56;75.03
64679;BME280;51094;53.864;27.676;2022-12-17T03:02:23;98973.16;;;-4.21;75.19
64679;BME280;51094;53.864;27.676;2022-12-17T03:05:09;99080.72;;;-3.71;75.44
64679;BME280;51094;53.864;27.676;2022-12-17T03:08:10;99090.72;;;-3.59;75.10
64679;BME280;51094;53.864;27.676;2022-12-17T03:10:56;99115.81;;;-3.42;75.28
64679;BME280;51094;53.864;27.676;2022-12-17T03:13:41;99131.63;;;-3.23;75.80
64679;BME280;51094;53.864;27.676;2022-12-17T03:16:26;99133.28;;;-3.21;75.56
64679;BME280;51094;53.864;27.676;2022-12-17T03:19:12;99142.59;;;-3.21;75.67
64679;BME280;51094;53.864;27.676;2022-12-17T03:21:57;99126.69;;;-3.32;75.69
64679;BME280;51094;53.864;27.676;2022-12-17T03:24:42;99087.13;;;-3.47;74.55
64679;BME280;51094;53.864;27.676;2022-12-17T03:27:28;99063.66;;;-3.63;75.35
64679;BME280;51094;53.864;27.676;2022-12-17T03:30:13;99113.09;;;-3.31;75.20
64679;BME280;51094;53.864;27.676;2022-12-17T03:33:02;99121.31;;;-3.16;74.65
64679;BME280;51094;53.864;27.676;2022-12-17T03:35:47;98948.59;;;-4.20;74.77
64679;BME280;51094;53.864;27.676;2022-12-17T03:38:32;99118.13;;;-3.28;74.90
64679;BME280;51094;53.864;27.676;2022-12-17T03:41:18;99125.78;;;-3.28;74.86
64679;BME280;51094;53.864;27.676;2022-12-17T03:44:03;99033.63;;;-3.90;74.62
64679;BME280;51094;53.864;27.676;2022-12-17T03:46:48;98943.22;;;-4.54;74.60
64679;BME280;51094;53.864;27.676;2022-12-17T03:49:34;99143.72;;;-3.38;75.12
64679;BME280;51094;53.864;27.676;2022-12-17T03:52:19;99153.88;;;-3.36;75.51
64679;BME280;51094;53.864;27.676;2022-12-17T03:55:04;99138.81;;;-3.47;75.21
64679;BME280;51094;53.864;27.676;2022-12-17T03:57:50;99065.78;;;-3.89;74.91
64679;BME280;51094;53.864;27.676;2022-12-17T04:00:35;99133.53;;;-3.38;74.87
64679;BME280;51094;53.864;27.676;2022-12-17T04:03:20;99139.34;;;-3.29;74.99
64679;BME280;51094;53.864;27.676;2022-12-17T04:06:06;99120.25;;;-3.52;74.63
64679;BME280;51094;53.864;27.676;2022-12-17T04:08:51;99126.22;;;-3.54;74.54
64679;BME280;51094;53.864;27.676;2022-12-17T04:11:36;99075.84;;;-3.85;75.49
64679;BME280;51094;53.864;27.676;2022-12-17T04:14:22;99058.06;;;-3.83;75.21
64679;BME280;51094;53.864;27.676;2022-12-17T04:17:07;99149.69;;;-3.40;74.93
64679;BME280;51094;53.864;27.676;2022-12-17T04:19:52;99098.31;;;-3.57;75.09
64679;BME280;51094;53.864;27.676;2022-12-17T04:22:38;99136.72;;;-3.25;75.52
64679;BME280;51094;53.864;27.676;2022-12-17T04:25:23;99156.97;;;-3.19;74.76
64679;BME280;51094;53.864;27.676;2022-12-17T04:28:08;99140.81;;;-3.16;74.73
64679;BME280;51094;53.864;27.676;2022-12-17T04:30:54;99157.50;;;-3.02;74.62
64679;BME280;51094;53.864;27.676;2022-12-17T04:33:50;99075.41;;;-3.56;75.02
64679;BME280;51094;53.864;27.676;2022-12-17T04:36:35;99155.72;;;-2.96;74.46
64679;BME280;51094;53.864;27.676;2022-12-17T04:39:20;99153.19;;;-2.96;74.78
64679;BME280;51094;53.864;27.676;2022-12-17T04:42:05;99156.53;;;-2.94;74.81
64679;BME280;51094;53.864;27.676;2022-12-17T04:44:51;99094.59;;;-3.40;74.01
64679;BME280;51094;53.864;27.676;2022-12-17T04:47:36;99154.31;;;-3.11;74.02
64679;BME280;51094;53.864;27.676;2022-12-17T04:50:21;99148.41;;;-3.13;74.19
64679;BME280;51094;53.864;27.676;2022-12-17T04:53:08;99133.31;;;-3.24;74.51
64679;BME280;51094;53.864;27.676;2022-12-17T04:55:54;99147.34;;;-3.03;74.32
64679;BME280;51094;53.864;27.676;2022-12-17T04:58:39;99103.81;;;-3.34;73.79
64679;BME280;51094;53.864;27.676;2022-12-17T05:01:25;99064.38;;;-3.55;73.96
64679;BME280;51094;53.864;27.676;2022-12-17T05:04:11;99150.19;;;-3.18;73.51
64679;BME280;51094;53.864;27.676;2022-12-17T05:06:58;99079.09;;;-3.75;73.93
64679;BME280;51094;53.864;27.676;2022-12-17T05:09:43;99146.25;;;-3.38;74.38
64679;BME280;51094;53.864;27.676;2022-12-17T05:12:28;99069.78;;;-3.75;73.90
64679;BME280;51094;53.864;27.676;2022-12-17T05:15:24;99170.47;;;-3.15;73.87
64679;BME280;51094;53.864;27.676;2022-12-17T05:18:16;99159.75;;;-3.32;74.20
64679;BME280;51094;53.864;27.676;2022-12-17T05:21:02;99147.06;;;-3.34;74.09
64679;BME280;51094;53.864;27.676;2022-12-17T05:23:47;99111.00;;;-3.57;74.10
64679;BME280;51094;53.864;27.676;2022-12-17T05:26:32;99173.81;;;-3.12;74.15
64679;BME280;51094;53.864;27.676;2022-12-17T05:29:17;99175.59;;;-3.17;73.90
64679;BME280;51094;53.864;27.676;2022-12-17T05:32:03;99075.75;;;-3.77;74.11
64679;BME280;51094;53.864;27.676;2022-12-17T05:34:48;99149.56;;;-3.32;74.57
64679;BME280;51094;53.864;27.676;2022-12-17T05:37:33;99167.31;;;-3.29;73.81
64679;BME280;51094;53.864;27.676;2022-12-17T05:40:24;99171.50;;;-3.27;74.44
64679;BME280;51094;53.864;27.676;2022-12-17T05:43:11;99113.75;;;-3.70;74.41
64679;BME280;51094;53.864;27.676;2022-12-17T05:45:56;99191.53;;;-3.07;74.19
64679;BME280;51094;53.864;27.676;2022-12-17T05:48:42;99187.31;;;-3.08;74.23
64679;BME280;51094;53.864;27.676;2022-12-17T05:51:27;99077.78;;;-3.97;73.97
64679;BME280;51094;53.864;27.676;2022-12-17T05:54:13;99195.38;;;-3.36;74.15
64679;BME280;51094;53.864;27.676;2022-12-17T05:56:58;99159.41;;;-3.65;73.81
64679;BME280;51094;53.864;27.676;2022-12-17T05:59:43;99107.56;;;-4.09;73.88
64679;BME280;51094;53.864;27.676;2022-12-17T06:02:37;99209.09;;;-3.46;74.39
64679;BME280;51094;53.864;27.676;2022-12-17T06:05:25;99144.38;;;-3.80;74.76
64679;BME280;51094;53.864;27.676;2022-12-17T06:08:11;99189.81;;;-3.57;74.42
64679;BME280;51094;53.864;27.676;2022-12-17T06:10:58;99218.19;;;-3.29;74.56
64679;BME280;51094;53.864;27.676;2022-12-17T06:13:44;99212.38;;;-3.38;74.30
64679;BME280;51094;53.864;27.676;2022-12-17T06:16:29;99157.06;;;-3.77;74.50
64679;BME280;51094;53.864;27.676;2022-12-17T06:19:15;99181.94;;;-3.44;74.44
64679;BME280;51094;53.864;27.676;2022-12-17T06:22:00;99166.09;;;-3.58;73.69
64679;BME280;51094;53.864;27.676;2022-12-17T06:24:45;99092.41;;;-4.15;73.89
64679;BME280;51094;53.864;27.676;2022-12-17T06:27:31;99194.16;;;-3.65;74.42
64679;BME280;51094;53.864;27.676;2022-12-17T06:30:16;99204.31;;;-3.64;74.60
64679;BME280;51094;53.864;27.676;2022-12-17T06:33:03;99225.34;;;-3.54;75.00
64679;BME280;51094;53.864;27.676;2022-12-17T06:35:51;99215.09;;;-3.48;74.93
64679;BME280;51094;53.864;27.676;2022-12-17T06:38:43;99211.72;;;-3.50;74.77
64679;BME280;51094;53.864;27.676;2022-12-17T06:41:28;98949.41;;;-5.35;74.63
64679;BME280;51094;53.864;27.676;2022-12-17T06:44:14;99185.97;;;-3.87;74.19
64679;BME280;51094;53.864;27.676;2022-12-17T06:46:59;99294.56;;;-3.37;74.78
64679;BME280;51094;53.864;27.676;2022-12-17T06:49:44;99261.72;;;-3.49;74.77
64679;BME280;51094;53.864;27.676;2022-12-17T06:52:30;99251.56;;;-3.51;74.62
64679;BME280;51094;53.864;27.676;2022-12-17T06:55:15;99251.56;;;-3.51;74.53
64679;BME280;51094;53.864;27.676;2022-12-17T06:58:01;99254.59;;;-3.27;74.81
64679;BME280;51094;53.864;27.676;2022-12-17T07:00:46;99258.53;;;-3.08;74.88
64679;BME280;51094;53.864;27.676;2022-12-17T07:03:31;99270.50;;;-3.13;73.93
64679;BME280;51094;53.864;27.676;2022-12-17T07:06:17;99298.47;;;-3.13;73.96
64679;BME280;51094;53.864;27.676;2022-12-17T07:09:02;99306.28;;;-3.25;74.02
64679;BME280;51094;53.864;27.676;2022-12-17T07:11:50;99298.50;;;-3.16;75.04
64679;BME280;51094;53.864;27.676;2022-12-17T07:14:36;99300.91;;;-3.06;73.91
64679;BME280;51094;53.864;27.676;2022-12-17T07:17:22;99214.13;;;-3.43;74.15
64679;BME280;51094;53.864;27.676;2022-12-17T07:20:07;99308.31;;;-2.92;74.12
64679;BME280;51094;53.864;27.676;2022-12-17T07:22:56;99210.13;;;-3.57;73.42
64679;BME280;51094;53.864;27.676;2022-12-17T07:25:41;99312.56;;;-2.94;73.51
64679;BME280;51094;53.864;27.676;2022-12-17T07:28:30;99331.09;;;-2.84;73.97
64679;BME280;51094;53.864;27.676;2022-12-17T07:31:15;99330.19;;;-2.82;73.80
64679;BME280;51094;53.864;27.676;2022-12-17T07:34:01;99242.06;;;-3.40;72.48
64679;BME280;51094;53.864;27.676;2022-12-17T07:36:46;99140.44;;;-3.99;73.29
64679;BME280;51094;53.864;27.676;2022-12-17T07:39:31;99328.53;;;-2.83;72.52
64679;BME280;51094;53.864;27.676;2022-12-17T07:42:17;99326.06;;;-2.89;72.67
64679;BME280;51094;53.864;27.676;2022-12-17T07:45:03;99317.41;;;-2.77;73.42
64679;BME280;51094;53.864;27.676;2022-12-17T07:47:54;99260.66;;;-2.82;73.30
64679;BME280;51094;53.864;27.676;2022-12-17T07:50:40;99300.09;;;-2.57;72.07
64679;BME280;51094;53.864;27.676;2022-12-17T07:53:25;99253.22;;;-2.94;71.99
64679;BME280;51094;53.864;27.676;2022-12-17T07:56:11;99303.69;;;-2.67;71.90
64679;BME280;51094;53.864;27.676;2022-12-17T07:58:56;99286.84;;;-2.76;72.95
64679;BME280;51094;53.864;27.676;2022-12-17T08:01:42;99239.59;;;-2.92;72.67
64679;BME280;51094;53.864;27.676;2022-12-17T08:04:28;99324.66;;;-2.54;71.85
64679;BME280;51094;53.864;27.676;2022-12-17T08:07:12;99348.56;;;-2.61;71.50
64679;BME280;51094;53.864;27.676;2022-12-17T08:10:00;99248.63;;;-3.25;72.14
64679;BME280;51094;53.864;27.676;2022-12-17T08:12:59;99324.38;;;-2.90;71.42
64679;BME280;51094;53.864;27.676;2022-12-17T08:15:45;99334.50;;;-2.85;72.59
64679;BME280;51094;53.864;27.676;2022-12-17T08:18:31;99331.88;;;-2.81;71.86
64679;BME280;51094;53.864;27.676;2022-12-17T08:21:16;99349.50;;;-2.69;72.42
64679;BME280;51094;53.864;27.676;2022-12-17T08:24:02;99296.38;;;-2.88;72.35
64679;BME280;51094;53.864;27.676;2022-12-17T08:26:48;99322.06;;;-2.53;72.14
64679;BME280;51094;53.864;27.676;2022-12-17T08:29:33;99321.97;;;-2.47;72.08
64679;BME280;51094;53.864;27.676;2022-12-17T08:32:19;99320.25;;;-2.45;71.85
64679;BME280;51094;53.864;27.676;2022-12-17T08:35:04;99326.97;;;-2.41;71.90
64679;BME280;51094;53.864;27.676;2022-12-17T08:37:49;99326.16;;;-2.43;71.57
64679;BME280;51094;53.864;27.676;2022-12-17T08:40:35;99283.41;;;-2.73;71.50
64679;BME280;51094;53.864;27.676;2022-12-17T08:43:20;99344.84;;;-2.44;71.76
64679;BME280;51094;53.864;27.676;2022-12-17T08:46:06;99328.81;;;-2.49;71.31
64679;BME280;51094;53.864;27.676;2022-12-17T08:48:56;99312.16;;;-2.66;71.73
64679;BME280;51094;53.864;27.676;2022-12-17T08:51:42;99292.72;;;-2.72;71.43
64679;BME280;51094;53.864;27.676;2022-12-17T08:54:28;99299.38;;;-2.63;71.52
64679;BME280;51094;53.864;27.676;2022-12-17T08:57:13;99327.81;;;-2.40;70.94
64679;BME280;51094;53.864;27.676;2022-12-17T08:59:59;99301.03;;;-2.61;71.54
64679;BME280;51094;53.864;27.676;2022-12-17T09:02:44;99314.22;;;-2.39;71.09
64679;BME280;51094;53.864;27.676;2022-12-17T09:05:30;99313.22;;;-2.30;71.31
64679;BME280;51094;53.864;27.676;2022-12-17T09:08:15;99313.94;;;-2.24;71.02
64679;BME280;51094;53.864;27.676;2022-12-17T09:11:01;99309.00;;;-2.33;70.37
64679;BME280;51094;53.864;27.676;2022-12-17T09:13:46;99323.50;;;-2.37;70.27
64679;BME280;51094;53.864;27.676;2022-12-17T09:16:31;99222.16;;;-3.13;70.47
64679;BME280;51094;53.864;27.676;2022-12-17T09:19:17;99305.94;;;-2.52;70.74
64679;BME280;51094;53.864;27.676;2022-12-17T09:22:02;99307.81;;;-2.61;70.54
64679;BME280;51094;53.864;27.676;2022-12-17T09:24:47;99313.69;;;-2.59;71.41
64679;BME280;51094;53.864;27.676;2022-12-17T09:27:33;99311.78;;;-2.45;71.53
64679;BME280;51094;53.864;27.676;2022-12-17T09:30:18;99315.88;;;-2.37;71.46
64679;BME280;51094;53.864;27.676;2022-12-17T09:33:04;99248.63;;;-2.73;70.77
64679;BME280;51094;53.864;27.676;2022-12-17T09:35:49;99287.50;;;-2.63;70.90
64679;BME280;51094;53.864;27.676;2022-12-17T09:38:35;99277.97;;;-2.55;71.13
64679;BME280;51094;53.864;27.676;2022-12-17T09:41:28;99311.50;;;-2.30;70.89
64679;BME280;51094;53.864;27.676;2022-12-17T09:44:43;99315.06;;;-2.39;71.28
64679;BME280;51094;53.864;27.676;2022-12-17T09:50:36;99329.69;;;-2.51;70.93
64679;BME280;51094;53.864;27.676;2022-12-17T09:53:36;99337.84;;;-2.31;71.39
64679;BME280;51094;53.864;27.676;2022-12-17T09:56:22;99308.84;;;-2.24;71.28
64679;BME280;51094;53.864;27.676;2022-12-17T09:59:19;99192.75;;;-2.80;70.56
64679;BME280;51094;53.864;27.676;2022-12-17T10:02:12;99287.59;;;-2.21;70.27
64679;BME280;51094;53.864;27.676;2022-12-17T10:05:00;99279.22;;;-2.28;70.62
64679;BME280;51094;53.864;27.676;2022-12-17T10:07:46;99219.56;;;-2.61;70.85
64679;BME280;51094;53.864;27.676;2022-12-17T10:10:32;99264.84;;;-2.32;70.71
64679;BME280;51094;53.864;27.676;2022-12-17T10:13:22;99260.56;;;-2.30;70.51
64679;BME280;51094;53.864;27.676;2022-12-17T10:16:38;99291.84;;;-2.22;70.25
64679;BME280;51094;53.864;27.676;2022-12-17T10:19:38;99298.81;;;-2.33;70.44
64679;BME280;51094;53.864;27.676;2022-12-17T10:22:25;99229.88;;;-2.69;71.06
64679;BME280;51094;53.864;27.676;2022-12-17T10:25:18;99285.28;;;-2.35;70.79
64679;BME280;51094;53.864;27.676;2022-12-17T10:28:15;99251.75;;;-2.58;71.22
64679;BME280;51094;53.864;27.676;2022-12-17T10:31:09;99138.38;;;-3.22;71.00
64679;BME280;51094;53.864;27.676;2022-12-17T10:33:55;99182.66;;;-2.85;70.97
64679;BME280;51094;53.864;27.676;2022-12-17T10:36:49;99237.22;;;-2.53;71.27
64679;BME280;51094;53.864;27.676;2022-12-17T10:39:36;99249.97;;;-2.55;70.61
64679;BME280;51094;53.864;27.676;2022-12-17T10:42:25;99234.22;;;-2.74;71.23
64679;BME280;51094;53.864;27.676;2022-12-17T10:48:34;99279.44;;;-2.42;71.24
64679;BME280;51094;53.864;27.676;2022-12-17T10:51:36;99281.75;;;-2.28;71.47
64679;BME280;51094;53.864;27.676;2022-12-17T10:54:27;99274.97;;;-2.29;70.89
64679;BME280;51094;53.864;27.676;2022-12-17T10:57:27;99264.97;;;-2.38;71.32
64679;BME280;51094;53.864;27.676;2022-12-17T11:06:28;99284.31;;;-2.28;70.75
64679;BME280;51094;53.864;27.676;2022-12-17T11:09:36;99291.13;;;-2.30;70.83
64679;BME280;51094;53.864;27.676;2022-12-17T11:12:28;99232.44;;;-2.69;70.96
64679;BME280;51094;53.864;27.676;2022-12-17T11:18:23;99297.91;;;-2.29;71.32
64679;BME280;51094;53.864;27.676;2022-12-17T11:21:20;99210.78;;;-2.92;70.67
64679;BME280;51094;53.864;27.676;2022-12-17T11:24:23;99308.91;;;-2.27;71.19
64679;BME280;51094;53.864;27.676;2022-12-17T11:27:16;99298.81;;;-2.33;71.09
64679;BME280;51094;53.864;27.676;2022-12-17T11:30:11;99288.69;;;-2.36;71.12
64679;BME280;51094;53.864;27.676;2022-12-17T11:33:08;99309.69;;;-2.23;71.11
64679;BME280;51094;53.864;27.676;2022-12-17T11:36:15;99316.69;;;-2.35;71.57
64679;BME280;51094;53.864;27.676;2022-12-17T11:39:20;99304.53;;;-2.19;71.15
64679;BME280;51094;53.864;27.676;2022-12-17T11:42:23;99285.97;;;-2.27;71.57
64679;BME280;51094;53.864;27.676;2022-12-17T11:48:56;99298.81;;;-2.31;71.02
64679;BME280;51094;53.864;27.676;2022-12-17T11:51:57;99264.25;;;-2.46;71.15
64679;BME280;51094;53.864;27.676;2022-12-17T12:01:40;99309.63;;;-2.20;71.16
64679;BME280;51094;53.864;27.676;2022-12-17T12:04:58;99319.81;;;-2.19;71.21
64679;BME280;51094;53.864;27.676;2022-12-17T12:08:01;99300.41;;;-2.26;71.17
64679;BME280;51094;53.864;27.676;2022-12-17T12:14:46;99261.75;;;-2.49;70.68
64679;BME280;51094;53.864;27.676;2022-12-17T12:17:47;99321.34;;;-2.12;70.70
64679;BME280;51094;53.864;27.676;2022-12-17T12:30:19;99324.88;;;-2.17;71.02
64679;BME280;51094;53.864;27.676;2022-12-17T12:36:04;99333.16;;;-2.08;70.63
64679;BME280;51094;53.864;27.676;2022-12-17T12:38:53;99353.78;;;-2.20;70.69
64679;BME280;51094;53.864;27.676;2022-12-17T12:41:58;99343.63;;;-2.21;70.54
64679;BME280;51094;53.864;27.676;2022-12-17T12:45:01;99325.00;;;-2.25;70.93
64679;BME280;51094;53.864;27.676;2022-12-17T12:48:15;99332.63;;;-2.23;70.87
64679;BME280;51094;53.864;27.676;2022-12-17T12:51:19;99260.44;;;-2.69;70.50
64679;BME280;51094;53.864;27.676;2022-12-17T13:00:27;99318.69;;;-2.53;70.13
64679;BME280;51094;53.864;27.676;2022-12-17T13:03:26;99326.44;;;-2.59;70.81
64679;BME280;51094;53.864;27.676;2022-12-17T13:06:36;99239.09;;;-3.12;70.56
64679;BME280;51094;53.864;27.676;2022-12-17T13:11:55;99248.97;;;-2.94;71.25
64679;BME280;51094;53.864;27.676;2022-12-17T13:14:27;99317.72;;;-2.46;71.67
64679;BME280;51094;53.864;27.676;2022-12-17T13:17:00;99258.03;;;-2.78;70.85
64679;BME280;51094;53.864;27.676;2022-12-17T13:24:49;99325.81;;;-2.72;71.35
64679;BME280;51094;53.864;27.676;2022-12-17T13:33:14;99283.41;;;-2.73;71.13
64679;BME280;51094;53.864;27.676;2022-12-17T13:35:58;99293.41;;;-2.62;71.51
64679;BME280;51094;53.864;27.676;2022-12-17T13:39:02;99302.94;;;-2.75;71.12
64679;BME280;51094;53.864;27.676;2022-12-17T13:41:33;99296.38;;;-2.88;70.63
64679;BME280;51094;53.864;27.676;2022-12-17T13:44:14;99294.03;;;-3.02;71.18
64679;BME280;51094;53.864;27.676;2022-12-17T13:46:45;99299.28;;;-3.10;71.31
64679;BME280;51094;53.864;27.676;2022-12-17T13:49:24;99238.06;;;-3.54;71.63
64679;BME280;51094;53.864;27.676;2022-12-17T13:52:16;99307.78;;;-3.12;71.16
64679;BME280;51094;53.864;27.676;2022-12-17T13:54:43;99272.47;;;-3.32;71.70
64679;BME280;51094;53.864;27.676;2022-12-17T13:57:20;99252.53;;;-3.59;71.04
64679;BME280;51094;53.864;27.676;2022-12-17T13:59:56;99275.19;;;-3.46;71.24
64679;BME280;51094;53.864;27.676;2022-12-17T14:02:30;99324.91;;;-3.23;70.99
64679;BME280;51094;53.864;27.676;2022-12-17T14:05:00;99353.88;;;-3.35;71.19
64679;BME280;51094;53.864;27.676;2022-12-17T14:07:37;99332.69;;;-3.37;71.84
64679;BME280;51094;53.864;27.676;2022-12-17T14:10:15;99308.44;;;-3.58;71.42
64679;BME280;51094;53.864;27.676;2022-12-17T14:12:44;99300.06;;;-3.67;71.53
64679;BME280;51094;53.864;27.676;2022-12-17T14:15:25;99195.09;;;-4.36;71.42
64679;BME280;51094;53.864;27.676;2022-12-17T14:17:54;99269.13;;;-3.97;71.13
64679;BME280;51094;53.864;27.676;2022-12-17T14:20:25;99350.75;;;-3.55;71.01
64679;BME280;51094;53.864;27.676;2022-12-17T14:22:58;99328.22;;;-3.86;70.99
64679;BME280;51094;53.864;27.676;2022-12-17T14:25:29;99343.22;;;-3.63;71.11
64679;BME280;51094;53.864;27.676;2022-12-17T14:28:20;99339.09;;;-3.73;70.80
64679;BME280;51094;53.864;27.676;2022-12-17T14:30:49;99292.09;;;-4.09;70.75
64679;BME280;51094;53.864;27.676;2022-12-17T14:33:36;99336.56;;;-3.73;71.24
64679;BME280;51094;53.864;27.676;2022-12-17T14:36:21;99344.19;;;-3.73;71.79
64679;BME280;51094;53.864;27.676;2022-12-17T14:38:53;99370.34;;;-3.65;71.53
64679;BME280;51094;53.864;27.676;2022-12-17T14:41:23;99342.50;;;-3.76;71.91
64679;BME280;51094;53.864;27.676;2022-12-17T14:44:19;99351.66;;;-3.61;71.55
64679;BME280;51094;53.864;27.676;2022-12-17T14:46:47;99272.69;;;-4.15;70.31
64679;BME280;51094;53.864;27.676;2022-12-17T14:49:19;99355.16;;;-3.71;71.44
64679;BME280;51094;53.864;27.676;2022-12-17T14:51:48;99346.84;;;-3.85;71.38
64679;BME280;51094;53.864;27.676;2022-12-17T14:56:58;99354.44;;;-3.82;70.81
64679;BME280;51094;53.864;27.676;2022-12-17T14:59:36;99343.50;;;-3.89;70.72
64679;BME280;51094;53.864;27.676;2022-12-17T15:04:35;99194.75;;;-4.80;71.03
64679;BME280;51094;53.864;27.676;2022-12-17T15:07:04;99370.47;;;-3.77;71.34
64679;BME280;51094;53.864;27.676;2022-12-17T15:09:37;99348.59;;;-3.89;71.60
64679;BME280;51094;53.864;27.676;2022-12-17T15:12:05;99274.47;;;-4.23;71.01
64679;BME280;51094;53.864;27.676;2022-12-17T15:14:32;99346.84;;;-3.84;70.95
64679;BME280;51094;53.864;27.676;2022-12-17T15:16:59;99339.22;;;-3.85;70.53
64679;BME280;51094;53.864;27.676;2022-12-17T15:19:27;99175.28;;;-4.80;70.54
64679;BME280;51094;53.864;27.676;2022-12-17T15:21:53;99348.44;;;-3.75;71.07
64679;BME280;51094;53.864;27.676;2022-12-17T15:24:21;99351.81;;;-3.73;71.37
64679;BME280;51094;53.864;27.676;2022-12-17T15:26:48;99213.94;;;-4.56;70.77
64679;BME280;51094;53.864;27.676;2022-12-17T15:29:15;99343.22;;;-3.63;71.45
64679;BME280;51094;53.864;27.676;2022-12-17T15:31:42;99188.47;;;-4.47;70.81
64679;BME280;51094;53.864;27.676;2022-12-17T15:34:10;99349.03;;;-3.53;71.13
64679;BME280;51094;53.864;27.676;2022-12-17T15:36:38;99346.38;;;-3.46;71.33
64679;BME280;51094;53.864;27.676;2022-12-17T15:39:05;99312.84;;;-3.74;70.84
64679;BME280;51094;53.864;27.676;2022-12-17T15:41:33;99343.03;;;-3.48;70.44
64679;BME280;51094;53.864;27.676;2022-12-17T15:44:18;99307.75;;;-3.72;70.27